createdAt,value
2017-10-07T00:00:38.141Z,11.2
2017-10-07T00:01:39.763Z,11.1
2017-10-07T00:02:41.384Z,11.2
2017-10-07T00:03:43.005Z,11.2
2017-10-07T00:04:44.625Z,11.2
2017-10-07T00:05:46.249Z,11.2
2017-10-07T00:06:47.869Z,11.3
2017-10-07T00:07:49.492Z,11.2
2017-10-07T00:08:51.111Z,11.3
2017-10-07T00:09:52.732Z,11.3
2017-10-07T00:10:54.354Z,11.3
2017-10-07T00:11:55.974Z,11.3
2017-10-07T00:12:57.599Z,11.3
2017-10-07T00:13:59.217Z,11.3
2017-10-07T00:15:00.837Z,11.2
2017-10-07T00:16:02.465Z,11.2
2017-10-07T00:17:04.084Z,11.3
2017-10-07T00:18:05.707Z,11.2
2017-10-07T00:19:07.328Z,11.1
2017-10-07T00:20:08.949Z,11.2
2017-10-07T00:21:10.571Z,11.2
2017-10-07T00:22:12.192Z,11.3
2017-10-07T00:23:13.812Z,11.4
2017-10-07T00:24:15.433Z,11.2
2017-10-07T00:25:17.055Z,11.3
2017-10-07T00:26:18.676Z,11.3
2017-10-07T00:27:20.301Z,11.2
2017-10-07T00:28:21.922Z,11.3
2017-10-07T00:29:23.542Z,11.3
2017-10-07T00:30:25.167Z,11.3
2017-10-07T00:31:26.787Z,11.3
2017-10-07T00:32:34.921Z,11.3
2017-10-07T00:33:36.536Z,11.4
2017-10-07T00:34:38.156Z,11.4
2017-10-07T00:35:39.777Z,11.4
2017-10-07T00:36:41.399Z,11.4
2017-10-07T00:37:43.020Z,11.4
2017-10-07T00:38:44.642Z,11.4
2017-10-07T00:39:46.265Z,11.5
2017-10-07T00:40:47.885Z,11.5
2017-10-07T00:41:49.511Z,11.4
2017-10-07T00:42:51.130Z,11.5
2017-10-07T00:43:52.750Z,11.4
2017-10-07T00:44:54.373Z,11.5
2017-10-07T00:45:55.992Z,11.4
2017-10-07T00:46:57.616Z,11.4
2017-10-07T00:47:59.239Z,11.5
2017-10-07T00:49:00.862Z,11.4
2017-10-07T00:50:02.481Z,11.5
2017-10-07T00:51:04.103Z,11.5
2017-10-07T00:52:05.725Z,11.5
2017-10-07T00:53:07.346Z,11.4
2017-10-07T00:54:08.968Z,11.4
2017-10-07T00:55:10.591Z,11.5
2017-10-07T00:56:12.214Z,11.4
2017-10-07T00:57:13.835Z,11.4
2017-10-07T00:58:15.456Z,11.4
2017-10-07T00:59:17.075Z,11.4
2017-10-07T01:00:18.697Z,11.4
2017-10-07T01:01:20.321Z,11.5
2017-10-07T01:02:21.942Z,11.5
2017-10-07T01:03:23.567Z,11.4
2017-10-07T01:04:25.187Z,11.4
2017-10-07T01:05:26.809Z,11.5
2017-10-07T01:06:28.431Z,11.6
2017-10-07T01:07:30.052Z,11.6
2017-10-07T01:08:31.675Z,11.5
2017-10-07T01:09:33.298Z,11.5
2017-10-07T01:10:34.921Z,11.5
2017-10-07T01:11:36.550Z,11.5
2017-10-07T01:12:38.171Z,11.5
2017-10-07T01:13:39.793Z,11.5
2017-10-07T01:14:41.414Z,11.5
2017-10-07T01:15:43.037Z,11.4
2017-10-07T01:16:44.659Z,11.5
2017-10-07T01:17:46.283Z,11.4
2017-10-07T01:18:47.904Z,11.4
2017-10-07T01:19:49.524Z,11.3
2017-10-07T01:20:51.146Z,11.4
2017-10-07T01:21:52.768Z,11.3
2017-10-07T01:22:54.392Z,11.4
2017-10-07T01:23:56.012Z,11.3
2017-10-07T01:24:57.635Z,11.3
2017-10-07T01:25:59.254Z,11.4
2017-10-07T01:27:00.877Z,11.4
2017-10-07T01:28:02.499Z,11.4
2017-10-07T01:29:04.120Z,11.3
2017-10-07T01:30:05.744Z,11.4
2017-10-07T01:31:07.367Z,11.4
2017-10-07T01:32:08.989Z,11.4
2017-10-07T01:33:10.608Z,11.5
2017-10-07T01:34:12.229Z,11.4
2017-10-07T01:35:13.851Z,11.4
2017-10-07T01:36:15.473Z,11.4
2017-10-07T01:37:17.095Z,11.4
2017-10-07T01:38:18.740Z,11.3
2017-10-07T01:39:20.340Z,11.4
2017-10-07T01:40:21.961Z,11.3
2017-10-07T01:41:23.583Z,11.3
2017-10-07T01:42:25.208Z,11.3
2017-10-07T01:43:26.829Z,11.4
2017-10-07T01:44:28.453Z,11.4
2017-10-07T01:45:30.074Z,11.3
2017-10-07T01:46:31.696Z,11.3
2017-10-07T01:47:33.317Z,11.4
2017-10-07T01:48:34.935Z,11.4
2017-10-07T01:49:36.557Z,11.4
2017-10-07T01:50:38.180Z,11.4
2017-10-07T01:51:39.800Z,11.4
2017-10-07T01:52:41.423Z,11.4
2017-10-07T01:53:43.047Z,11.4
2017-10-07T01:54:44.667Z,11.4
2017-10-07T01:55:46.284Z,11.4
2017-10-07T01:56:47.908Z,11.4
2017-10-07T01:57:49.529Z,11.5
2017-10-07T01:58:51.150Z,11.4
2017-10-07T01:59:52.773Z,11.3
2017-10-07T02:00:54.395Z,11.3
2017-10-07T02:01:56.016Z,11.3
2017-10-07T02:02:57.635Z,11.3
2017-10-07T02:03:59.257Z,11.3
2017-10-07T02:05:00.878Z,11.4
2017-10-07T02:06:02.499Z,11.3
2017-10-07T02:07:04.122Z,11.3
2017-10-07T02:08:05.744Z,11.2
2017-10-07T02:09:07.364Z,11.3
2017-10-07T02:10:08.985Z,11.1
2017-10-07T02:11:10.607Z,11.2
2017-10-07T02:12:12.232Z,11.2
2017-10-07T02:13:13.849Z,11.2
2017-10-07T02:14:15.472Z,11.2
2017-10-07T02:15:17.095Z,11.2
2017-10-07T02:16:18.714Z,11.2
2017-10-07T02:17:20.336Z,11.1
2017-10-07T02:18:21.958Z,11.2
2017-10-07T02:19:23.580Z,11.1
2017-10-07T02:20:25.200Z,11.1
2017-10-07T02:21:26.821Z,11.1
2017-10-07T02:22:28.449Z,11.1
2017-10-07T02:23:30.070Z,11.1
2017-10-07T02:24:31.691Z,11.1
2017-10-07T02:25:33.311Z,11.1
2017-10-07T02:26:34.933Z,11.1
2017-10-07T02:27:36.555Z,11.1
2017-10-07T02:28:38.181Z,11.2
2017-10-07T02:29:39.799Z,11.2
2017-10-07T02:30:41.425Z,11.1
2017-10-07T02:31:43.042Z,11.1
2017-10-07T02:32:44.664Z,11.1
2017-10-07T02:33:46.285Z,11.1
2017-10-07T02:34:47.905Z,11.1
2017-10-07T02:35:49.530Z,11.1
2017-10-07T02:36:51.153Z,11.1
2017-10-07T02:37:52.774Z,11.1
2017-10-07T02:38:54.394Z,11.2
2017-10-07T02:39:56.015Z,11.2
2017-10-07T02:40:57.636Z,11.1
2017-10-07T02:41:59.256Z,11.1
2017-10-07T02:43:00.881Z,11.1
2017-10-07T02:44:02.502Z,11.1
2017-10-07T02:45:04.121Z,11.2
2017-10-07T02:46:05.742Z,11.2
2017-10-07T02:47:07.365Z,11.2
2017-10-07T02:48:08.985Z,11.2
2017-10-07T02:49:10.607Z,11.2
2017-10-07T02:50:12.228Z,11.1
2017-10-07T02:51:13.851Z,11.3
2017-10-07T02:52:15.471Z,11.2
2017-10-07T02:53:17.093Z,11.2
2017-10-07T02:54:18.712Z,11.2
2017-10-07T02:55:20.335Z,11.2
2017-10-07T02:56:21.960Z,11.2
2017-10-07T02:57:23.576Z,11.2
2017-10-07T02:58:25.198Z,11.1
2017-10-07T02:59:26.821Z,11.1
2017-10-07T03:00:28.440Z,11.1
2017-10-07T03:01:30.061Z,11.1
2017-10-07T03:02:31.684Z,11.1
2017-10-07T03:03:33.307Z,11.2
2017-10-07T03:04:34.930Z,11.1
2017-10-07T03:05:36.559Z,11.2
2017-10-07T03:06:38.174Z,11.2
2017-10-07T03:07:39.797Z,11.1
2017-10-07T03:08:41.415Z,11.2
2017-10-07T03:09:43.036Z,11.2
2017-10-07T03:10:44.657Z,11.1
2017-10-07T03:11:46.279Z,11.2
2017-10-07T03:12:47.902Z,11.1
2017-10-07T03:13:49.522Z,11.2
2017-10-07T03:14:51.144Z,11.1
2017-10-07T03:15:52.765Z,11.2
2017-10-07T03:16:54.388Z,11.2
2017-10-07T03:17:56.010Z,11.1
2017-10-07T03:18:57.632Z,11.2
2017-10-07T03:19:59.255Z,11.1
2017-10-07T03:21:00.876Z,11.1
2017-10-07T03:22:02.497Z,11.2
2017-10-07T03:23:04.131Z,11.2
2017-10-07T03:24:05.737Z,11.2
2017-10-07T03:25:07.359Z,11.2
2017-10-07T03:26:08.983Z,11.1
2017-10-07T03:27:10.604Z,11.2
2017-10-07T03:28:12.225Z,11.1
2017-10-07T03:29:13.844Z,11.2
2017-10-07T03:30:15.469Z,11.2
2017-10-07T03:31:17.087Z,11.2
2017-10-07T03:32:18.707Z,11.1
2017-10-07T03:33:20.330Z,11.2
2017-10-07T03:34:21.953Z,11.2
2017-10-07T03:35:23.573Z,11.2
2017-10-07T03:36:25.197Z,11.1
2017-10-07T03:37:26.815Z,11.1
2017-10-07T03:38:28.440Z,11.1
2017-10-07T03:39:30.088Z,11.1
2017-10-07T03:40:31.680Z,11.0
2017-10-07T03:41:33.309Z,11.1
2017-10-07T03:42:34.923Z,11.0
2017-10-07T03:43:36.546Z,11.0
2017-10-07T03:44:38.166Z,11.0
2017-10-07T03:45:39.788Z,11.0
2017-10-07T03:46:41.408Z,11.0
2017-10-07T03:47:43.052Z,11.0
2017-10-07T03:48:44.654Z,11.0
2017-10-07T03:49:46.271Z,11.0
2017-10-07T03:50:47.893Z,11.0
2017-10-07T03:51:49.514Z,11.1
2017-10-07T03:52:51.136Z,11.1
2017-10-07T03:53:52.757Z,11.1
2017-10-07T03:54:54.381Z,11.0
2017-10-07T03:55:56.002Z,11.0
2017-10-07T03:56:57.624Z,11.1
2017-10-07T03:57:59.243Z,11.0
2017-10-07T03:59:00.869Z,11.0
2017-10-07T04:00:02.484Z,11.1
2017-10-07T04:01:04.108Z,11.0
2017-10-07T04:02:05.728Z,11.1
2017-10-07T04:03:07.350Z,10.9
2017-10-07T04:04:08.969Z,10.9
2017-10-07T04:05:10.592Z,11.0
2017-10-07T04:06:12.208Z,11.0
2017-10-07T04:07:13.829Z,11.0
2017-10-07T04:08:15.454Z,11.0
2017-10-07T04:09:17.073Z,10.9
2017-10-07T04:10:18.701Z,10.9
2017-10-07T04:11:20.314Z,10.9
2017-10-07T04:12:21.934Z,10.9
2017-10-07T04:13:23.555Z,11.0
2017-10-07T04:14:25.176Z,10.9
2017-10-07T04:15:26.795Z,10.9
2017-10-07T04:16:28.418Z,11.0
2017-10-07T04:17:30.042Z,10.9
2017-10-07T04:18:31.665Z,10.9
2017-10-07T04:19:33.281Z,10.9
2017-10-07T04:20:34.903Z,10.9
2017-10-07T04:21:36.526Z,10.9
2017-10-07T04:22:38.172Z,10.8
2017-10-07T04:23:39.772Z,10.9
2017-10-07T04:24:41.392Z,10.8
2017-10-07T04:25:43.012Z,10.8
2017-10-07T04:26:44.636Z,10.8
2017-10-07T04:27:46.252Z,10.8
2017-10-07T04:28:47.874Z,10.8
2017-10-07T04:29:49.496Z,10.8
2017-10-07T04:30:51.117Z,10.8
2017-10-07T04:31:52.739Z,10.9
2017-10-07T04:32:54.358Z,10.8
2017-10-07T04:33:55.976Z,10.8
2017-10-07T04:34:57.595Z,10.9
2017-10-07T04:35:59.213Z,10.8
2017-10-07T04:37:00.832Z,10.8
2017-10-07T04:38:02.451Z,10.8
2017-10-07T04:39:04.074Z,10.7
2017-10-07T04:40:05.690Z,10.7
2017-10-07T04:41:07.307Z,10.8
2017-10-07T04:42:08.929Z,10.8
2017-10-07T04:43:10.551Z,10.7
2017-10-07T04:44:12.170Z,10.7
2017-10-07T04:45:13.791Z,10.8
2017-10-07T04:46:15.415Z,10.8
2017-10-07T04:47:17.033Z,10.7
2017-10-07T04:48:18.652Z,10.7
2017-10-07T04:49:20.271Z,10.8
2017-10-07T04:50:21.888Z,10.7
2017-10-07T04:51:23.509Z,10.7
2017-10-07T04:52:25.134Z,10.7
2017-10-07T04:53:26.754Z,10.7
2017-10-07T04:54:28.370Z,10.8
2017-10-07T04:55:29.991Z,10.8
2017-10-07T04:56:31.616Z,10.8
2017-10-07T04:57:33.231Z,10.8
2017-10-07T04:58:34.843Z,10.7
2017-10-07T04:59:36.468Z,10.7
2017-10-07T05:00:38.116Z,10.7
2017-10-07T05:01:39.706Z,10.7
2017-10-07T05:02:41.325Z,10.7
2017-10-07T05:03:42.946Z,10.7
2017-10-07T05:04:44.562Z,10.7
2017-10-07T05:05:46.185Z,10.7
2017-10-07T05:06:47.802Z,10.7
2017-10-07T05:07:49.421Z,10.7
2017-10-07T05:08:51.039Z,10.7
2017-10-07T05:09:52.661Z,10.7
2017-10-07T05:10:54.280Z,10.7
2017-10-07T05:11:55.898Z,10.7
2017-10-07T05:12:57.520Z,10.7
2017-10-07T05:13:59.140Z,10.8
2017-10-07T05:15:00.761Z,10.8
2017-10-07T05:16:02.379Z,10.8
2017-10-07T05:17:03.997Z,10.7
2017-10-07T05:18:05.618Z,10.7
2017-10-07T05:19:07.236Z,10.7
2017-10-07T05:20:08.856Z,10.8
2017-10-07T05:21:10.475Z,10.7
2017-10-07T05:22:12.096Z,10.8
2017-10-07T05:23:13.714Z,10.7
2017-10-07T05:24:15.332Z,10.8
2017-10-07T05:25:16.951Z,10.7
2017-10-07T05:26:18.572Z,10.8
2017-10-07T05:27:20.190Z,10.8
2017-10-07T05:28:21.809Z,10.9
2017-10-07T05:29:23.433Z,10.7
2017-10-07T05:30:25.052Z,10.7
2017-10-07T05:31:26.669Z,10.7
2017-10-07T05:32:28.290Z,10.7
2017-10-07T05:33:29.914Z,10.8
2017-10-07T05:34:31.535Z,10.8
2017-10-07T05:35:33.156Z,10.8
2017-10-07T05:36:34.784Z,10.7
2017-10-07T05:37:37.396Z,10.7
2017-10-07T05:38:39.022Z,10.6
2017-10-07T05:39:40.633Z,10.7
2017-10-07T05:40:42.253Z,10.7
2017-10-07T05:41:43.878Z,10.6
2017-10-07T05:42:45.498Z,10.6
2017-10-07T05:43:47.118Z,10.7
2017-10-07T05:44:48.738Z,10.7
2017-10-07T05:45:50.359Z,10.6
2017-10-07T05:46:51.980Z,10.6
2017-10-07T05:47:53.600Z,10.7
2017-10-07T05:48:55.225Z,10.6
2017-10-07T05:49:56.853Z,10.5
2017-10-07T05:50:58.470Z,10.6
2017-10-07T05:52:00.088Z,10.6
2017-10-07T05:53:01.709Z,10.6
2017-10-07T05:54:03.331Z,10.6
2017-10-07T05:55:04.954Z,10.6
2017-10-07T05:56:06.575Z,10.5
2017-10-07T05:57:08.196Z,10.6
2017-10-07T05:58:09.817Z,10.6
2017-10-07T05:59:11.438Z,10.6
2017-10-07T06:00:13.057Z,10.5
2017-10-07T06:01:14.684Z,10.6
2017-10-07T06:02:16.304Z,10.6
2017-10-07T06:03:17.932Z,10.5
2017-10-07T06:04:19.556Z,10.6
2017-10-07T06:05:21.179Z,10.5
2017-10-07T06:06:22.803Z,10.5
2017-10-07T06:07:24.426Z,10.6
2017-10-07T06:08:26.047Z,10.6
2017-10-07T06:09:27.670Z,10.6
2017-10-07T06:10:29.292Z,10.6
2017-10-07T06:11:30.915Z,10.6
2017-10-07T06:12:32.537Z,10.7
2017-10-07T06:13:34.160Z,10.7
2017-10-07T06:14:35.785Z,10.6
2017-10-07T06:15:37.408Z,10.6
2017-10-07T06:16:39.031Z,10.7
2017-10-07T06:17:40.789Z,10.7
2017-10-07T06:18:42.408Z,10.7
2017-10-07T06:19:44.033Z,10.6
2017-10-07T06:20:45.653Z,10.6
2017-10-07T06:21:47.277Z,10.7
2017-10-07T06:22:48.900Z,10.7
2017-10-07T06:23:50.524Z,10.6
2017-10-07T06:24:52.145Z,10.6
2017-10-07T06:25:53.768Z,10.6
2017-10-07T06:26:55.392Z,10.6
2017-10-07T06:27:57.011Z,10.7
2017-10-07T06:28:58.635Z,10.7
2017-10-07T06:30:00.259Z,10.7
2017-10-07T06:31:01.878Z,10.8
2017-10-07T06:32:03.502Z,10.7
2017-10-07T06:33:05.125Z,10.8
2017-10-07T06:34:06.749Z,10.8
2017-10-07T06:35:08.371Z,10.7
2017-10-07T06:36:09.989Z,10.8
2017-10-07T06:37:11.613Z,10.7
2017-10-07T06:38:13.234Z,10.7
2017-10-07T06:39:14.856Z,10.7
2017-10-07T06:40:16.482Z,10.7
2017-10-07T06:41:18.108Z,10.7
2017-10-07T06:42:19.732Z,10.7
2017-10-07T06:43:21.351Z,10.8
2017-10-07T06:44:22.973Z,10.7
2017-10-07T06:45:24.599Z,10.7
2017-10-07T06:46:26.222Z,10.8
2017-10-07T06:47:27.846Z,10.8
2017-10-07T06:48:29.473Z,10.8
2017-10-07T06:49:31.092Z,10.9
2017-10-07T06:50:32.716Z,10.9
2017-10-07T06:51:34.344Z,10.9
2017-10-07T06:52:35.960Z,10.9
2017-10-07T06:53:37.589Z,10.8
2017-10-07T06:54:39.214Z,10.9
2017-10-07T06:55:40.875Z,10.8
2017-10-07T06:56:42.499Z,10.9
2017-10-07T06:57:44.124Z,10.9
2017-10-07T06:58:45.751Z,10.9
2017-10-07T06:59:47.376Z,10.9
2017-10-07T07:00:48.998Z,10.9
2017-10-07T07:01:50.621Z,10.9
2017-10-07T07:02:52.246Z,11.0
2017-10-07T07:03:53.870Z,11.1
2017-10-07T07:04:55.491Z,11.0
2017-10-07T07:05:57.115Z,11.1
2017-10-07T07:06:58.737Z,11.0
2017-10-07T07:08:00.361Z,11.0
2017-10-07T07:09:01.987Z,11.0
2017-10-07T07:10:03.611Z,11.0
2017-10-07T07:11:05.233Z,11.0
2017-10-07T07:12:06.857Z,11.1
2017-10-07T07:13:08.478Z,11.1
2017-10-07T07:14:10.103Z,11.1
2017-10-07T07:15:11.727Z,11.0
2017-10-07T07:16:13.360Z,11.1
2017-10-07T07:17:14.979Z,11.1
2017-10-07T07:18:16.603Z,11.1
2017-10-07T07:19:18.225Z,11.1
2017-10-07T07:20:19.845Z,11.1
2017-10-07T07:21:21.471Z,11.1
2017-10-07T07:22:23.094Z,11.1
2017-10-07T07:23:24.719Z,11.0
2017-10-07T07:24:26.344Z,11.2
2017-10-07T07:25:27.964Z,11.2
2017-10-07T07:26:29.591Z,11.2
2017-10-07T07:27:31.210Z,11.2
2017-10-07T07:28:32.833Z,11.2
2017-10-07T07:29:34.457Z,11.1
2017-10-07T07:30:36.082Z,11.2
2017-10-07T07:31:37.706Z,11.2
2017-10-07T07:32:39.329Z,11.1
2017-10-07T07:33:40.953Z,11.1
2017-10-07T07:34:42.580Z,11.3
2017-10-07T07:35:44.197Z,11.3
2017-10-07T07:36:45.819Z,11.2
2017-10-07T07:37:47.445Z,11.3
2017-10-07T07:38:49.068Z,11.2
2017-10-07T07:39:50.692Z,11.3
2017-10-07T07:40:52.314Z,11.3
2017-10-07T07:41:53.935Z,11.4
2017-10-07T07:42:55.978Z,11.4
2017-10-07T07:43:57.603Z,11.4
2017-10-07T07:44:59.225Z,11.5
2017-10-07T07:46:00.854Z,11.5
2017-10-07T07:47:02.474Z,11.5
2017-10-07T07:48:04.097Z,11.5
2017-10-07T07:49:05.719Z,11.4
2017-10-07T07:50:07.341Z,11.5
2017-10-07T07:51:08.965Z,11.5
2017-10-07T07:52:10.587Z,11.5
2017-10-07T07:53:12.214Z,11.4
2017-10-07T07:54:13.836Z,11.5
2017-10-07T07:55:15.458Z,11.4
2017-10-07T07:56:17.078Z,11.4
2017-10-07T07:57:18.701Z,11.4
2017-10-07T07:58:20.324Z,11.5
2017-10-07T07:59:22.469Z,11.5
2017-10-07T08:00:24.090Z,11.5
2017-10-07T08:01:25.715Z,11.5
2017-10-07T08:02:27.336Z,11.4
2017-10-07T08:03:28.956Z,11.5
2017-10-07T08:04:30.581Z,11.4
2017-10-07T08:05:32.207Z,11.5
2017-10-07T08:06:33.829Z,11.5
2017-10-07T08:07:35.454Z,11.5
2017-10-07T08:08:37.074Z,11.5
2017-10-07T08:09:38.725Z,11.5
2017-10-07T08:10:40.349Z,11.5
2017-10-07T08:11:41.971Z,11.5
2017-10-07T08:12:43.594Z,11.6
2017-10-07T08:13:45.220Z,11.5
2017-10-07T08:14:46.844Z,11.5
2017-10-07T08:15:48.515Z,11.6
2017-10-07T08:16:50.139Z,11.5
2017-10-07T08:17:51.783Z,11.6
2017-10-07T08:18:53.961Z,11.6
2017-10-07T08:19:55.586Z,11.5
2017-10-07T08:20:57.211Z,11.6
2017-10-07T08:21:58.870Z,11.6
2017-10-07T08:23:00.573Z,11.5
2017-10-07T08:24:02.208Z,11.6
2017-10-07T08:25:03.835Z,11.6
2017-10-07T08:26:05.456Z,11.6
2017-10-07T08:27:07.081Z,11.7
2017-10-07T08:28:08.705Z,11.7
2017-10-07T08:29:10.547Z,11.7
2017-10-07T08:30:12.208Z,11.7
2017-10-07T08:31:13.831Z,11.7
2017-10-07T08:32:15.455Z,11.7
2017-10-07T08:33:17.078Z,11.8
2017-10-07T08:34:18.702Z,11.7
2017-10-07T08:35:20.324Z,11.7
2017-10-07T08:36:21.952Z,11.7
2017-10-07T08:37:23.575Z,11.8
2017-10-07T08:38:26.127Z,11.7
2017-10-07T08:39:27.881Z,11.8
2017-10-07T08:40:29.830Z,11.8
2017-10-07T08:41:31.454Z,11.8
2017-10-07T08:42:33.078Z,11.8
2017-10-07T08:43:34.702Z,11.8
2017-10-07T08:44:36.316Z,11.8
2017-10-07T08:45:37.962Z,11.8
2017-10-07T08:46:39.586Z,11.8
2017-10-07T08:47:41.209Z,11.8
2017-10-07T08:48:42.833Z,12.0
2017-10-07T08:49:44.457Z,12.0
2017-10-07T08:50:46.079Z,11.9
2017-10-07T08:51:47.704Z,11.9
2017-10-07T08:52:49.328Z,12.0
2017-10-07T08:53:52.028Z,11.9
2017-10-07T08:54:53.649Z,11.9
2017-10-07T08:55:55.275Z,12.1
2017-10-07T08:56:59.430Z,12.0
2017-10-07T08:58:01.270Z,12.0
2017-10-07T08:59:02.890Z,12.0
2017-10-07T09:00:04.514Z,12.0
2017-10-07T09:01:06.137Z,11.9
2017-10-07T09:02:07.760Z,12.0
2017-10-07T09:03:09.415Z,11.9
2017-10-07T09:04:11.041Z,12.0
2017-10-07T09:05:12.663Z,11.9
2017-10-07T09:06:14.290Z,11.8
2017-10-07T09:07:15.909Z,11.9
2017-10-07T09:08:17.530Z,11.8
2017-10-07T09:09:19.152Z,11.9
2017-10-07T09:10:20.781Z,11.9
2017-10-07T09:11:22.929Z,11.8
2017-10-07T09:12:24.555Z,11.8
2017-10-07T09:13:26.178Z,11.9
2017-10-07T09:14:27.802Z,11.8
2017-10-07T09:15:29.733Z,11.8
2017-10-07T09:16:31.355Z,11.8
2017-10-07T09:17:33.010Z,11.8
2017-10-07T09:18:34.635Z,11.8
2017-10-07T09:19:36.258Z,11.8
2017-10-07T09:20:37.881Z,11.8
2017-10-07T09:21:39.504Z,11.8
2017-10-07T09:22:41.160Z,11.8
2017-10-07T09:23:42.781Z,11.8
2017-10-07T09:24:44.407Z,11.9
2017-10-07T09:25:46.761Z,11.8
2017-10-07T09:26:48.387Z,11.9
2017-10-07T09:27:50.008Z,11.9
2017-10-07T09:28:51.634Z,12.0
2017-10-07T09:29:53.280Z,11.9
2017-10-07T09:30:55.133Z,12.1
2017-10-07T09:31:56.758Z,12.1
2017-10-07T09:32:58.384Z,12.1
2017-10-07T09:34:00.008Z,12.1
2017-10-07T09:35:01.635Z,12.3
2017-10-07T09:36:03.258Z,12.2
2017-10-07T09:37:04.883Z,12.2
2017-10-07T09:38:06.515Z,12.3
2017-10-07T09:39:08.164Z,12.3
2017-10-07T09:40:09.787Z,12.3
2017-10-07T09:41:11.446Z,12.4
2017-10-07T09:42:13.067Z,12.4
2017-10-07T09:43:14.691Z,12.4
2017-10-07T09:44:16.552Z,12.4
2017-10-07T09:45:18.586Z,12.4
2017-10-07T09:46:20.300Z,12.4
2017-10-07T09:47:22.194Z,12.4
2017-10-07T09:48:23.820Z,12.4
2017-10-07T09:49:25.441Z,12.3
2017-10-07T09:50:27.852Z,12.4
2017-10-07T09:51:29.982Z,12.4
2017-10-07T09:52:31.614Z,12.4
2017-10-07T09:53:33.235Z,12.3
2017-10-07T09:54:34.863Z,12.4
2017-10-07T09:55:36.489Z,12.4
2017-10-07T09:56:38.109Z,12.3
2017-10-07T09:57:39.732Z,12.4
2017-10-07T09:58:41.357Z,12.4
2017-10-07T09:59:42.981Z,12.4
2017-10-07T10:00:44.607Z,12.4
2017-10-07T10:01:46.255Z,12.4
2017-10-07T10:02:47.879Z,12.4
2017-10-07T10:03:49.504Z,12.4
2017-10-07T10:04:51.132Z,12.4
2017-10-07T10:05:52.754Z,12.4
2017-10-07T10:06:54.377Z,12.3
2017-10-07T10:07:56.002Z,12.3
2017-10-07T10:08:57.626Z,12.3
2017-10-07T10:09:59.254Z,12.3
2017-10-07T10:11:00.875Z,12.3
2017-10-07T10:12:02.765Z,12.3
2017-10-07T10:13:05.056Z,12.3
2017-10-07T10:14:06.678Z,12.3
2017-10-07T10:15:09.012Z,12.2
2017-10-07T10:16:10.598Z,12.2
2017-10-07T10:17:12.224Z,12.2
2017-10-07T10:18:13.844Z,12.2
2017-10-07T10:19:15.470Z,12.3
2017-10-07T10:20:17.093Z,12.2
2017-10-07T10:21:18.824Z,12.2
2017-10-07T10:22:20.440Z,12.2
2017-10-07T10:23:22.068Z,12.4
2017-10-07T10:24:23.695Z,12.4
2017-10-07T10:25:25.317Z,12.4
2017-10-07T10:26:26.941Z,12.4
2017-10-07T10:27:28.565Z,12.4
2017-10-07T10:28:30.189Z,12.4
2017-10-07T10:29:32.402Z,12.4
2017-10-07T10:30:34.025Z,12.4
2017-10-07T10:31:35.649Z,12.3
2017-10-07T10:32:37.269Z,12.3
2017-10-07T10:33:38.892Z,12.3
2017-10-07T10:34:40.516Z,12.3
2017-10-07T10:35:42.139Z,12.2
2017-10-07T10:36:43.762Z,12.3
2017-10-07T10:37:45.410Z,12.3
2017-10-07T10:38:47.030Z,12.2
2017-10-07T10:39:48.678Z,12.2
2017-10-07T10:40:50.793Z,12.2
2017-10-07T10:41:52.416Z,12.1
2017-10-07T10:42:54.040Z,12.1
2017-10-07T10:43:55.667Z,12.1
2017-10-07T10:44:58.346Z,12.1
2017-10-07T10:45:59.967Z,12.1
2017-10-07T10:47:01.590Z,12.0
2017-10-07T10:48:03.214Z,12.1
2017-10-07T10:49:04.839Z,12.1
2017-10-07T10:50:06.462Z,12.0
2017-10-07T10:51:08.152Z,12.0
2017-10-07T10:52:09.774Z,11.9
2017-10-07T10:53:11.398Z,11.9
2017-10-07T10:54:13.019Z,11.9
2017-10-07T10:55:14.640Z,12.0
2017-10-07T10:56:16.263Z,11.9
2017-10-07T10:57:17.887Z,11.9
2017-10-07T10:58:19.514Z,11.9
2017-10-07T10:59:21.135Z,11.9
2017-10-07T11:00:22.758Z,11.8
2017-10-07T11:01:24.379Z,11.9
2017-10-07T11:02:26.003Z,11.9
2017-10-07T11:03:27.626Z,11.9
2017-10-07T11:04:29.253Z,12.0
2017-10-07T11:05:30.875Z,12.0
2017-10-07T11:06:32.501Z,11.9
2017-10-07T11:07:34.126Z,11.8
2017-10-07T11:08:35.745Z,11.9
2017-10-07T11:09:37.373Z,11.9
2017-10-07T11:10:38.996Z,11.9
2017-10-07T11:11:40.619Z,11.9
2017-10-07T11:12:42.648Z,11.8
2017-10-07T11:13:44.106Z,11.7
2017-10-07T11:14:45.730Z,11.7
2017-10-07T11:15:47.358Z,11.7
2017-10-07T11:16:48.982Z,11.7
2017-10-07T11:17:50.605Z,11.7
2017-10-07T11:18:52.627Z,11.6
2017-10-07T11:19:54.253Z,11.5
2017-10-07T11:20:55.876Z,11.6
2017-10-07T11:21:57.509Z,11.6
2017-10-07T11:22:59.126Z,11.5
2017-10-07T11:24:00.748Z,11.5
2017-10-07T11:25:02.496Z,11.5
2017-10-07T11:26:04.118Z,11.5
2017-10-07T11:27:05.753Z,11.4
2017-10-07T11:28:07.369Z,11.4
2017-10-07T11:29:08.993Z,11.4
2017-10-07T11:30:10.616Z,11.3
2017-10-07T11:31:12.242Z,11.3
2017-10-07T11:32:13.866Z,11.4
2017-10-07T11:33:15.488Z,11.3
2017-10-07T11:34:17.109Z,11.3
2017-10-07T11:35:18.735Z,11.4
2017-10-07T11:36:20.359Z,11.4
2017-10-07T11:37:21.982Z,11.4
2017-10-07T11:38:23.604Z,11.4
2017-10-07T11:39:25.228Z,11.4
2017-10-07T11:40:26.862Z,11.4
2017-10-07T11:41:28.517Z,11.4
2017-10-07T11:42:30.141Z,11.4
2017-10-07T11:43:31.764Z,11.4
2017-10-07T11:44:35.139Z,11.4
2017-10-07T11:45:36.763Z,11.4
2017-10-07T11:46:38.463Z,11.4
2017-10-07T11:47:40.085Z,11.4
2017-10-07T11:48:41.716Z,11.4
2017-10-07T11:49:44.708Z,11.5
2017-10-07T11:50:46.339Z,11.5
2017-10-07T11:51:47.960Z,11.5
2017-10-07T11:52:49.583Z,11.4
2017-10-07T11:53:51.208Z,11.4
2017-10-07T11:54:52.828Z,11.3
2017-10-07T11:55:54.453Z,11.2
2017-10-07T11:56:56.079Z,11.2
2017-10-07T11:57:57.701Z,11.1
2017-10-07T11:58:59.324Z,11.2
2017-10-07T12:00:00.945Z,11.1
2017-10-07T12:01:03.614Z,11.1
2017-10-07T12:02:05.589Z,11.0
2017-10-07T12:03:07.213Z,11.1
2017-10-07T12:04:09.288Z,11.0
2017-10-07T12:05:11.064Z,11.0
2017-10-07T12:06:12.741Z,11.0
2017-10-07T12:07:14.378Z,11.1
2017-10-07T12:08:15.998Z,11.0
2017-10-07T12:09:17.621Z,11.0
2017-10-07T12:10:19.246Z,11.0
2017-10-07T12:11:20.874Z,11.0
2017-10-07T12:12:22.498Z,11.0
2017-10-07T12:13:24.123Z,11.0
2017-10-07T12:14:25.745Z,10.9
2017-10-07T12:15:27.418Z,10.9
2017-10-07T12:16:29.083Z,11.0
2017-10-07T12:17:30.709Z,10.9
2017-10-07T12:18:33.805Z,10.9
2017-10-07T12:19:35.249Z,10.9
2017-10-07T12:20:36.870Z,10.9
2017-10-07T12:21:38.496Z,10.9
2017-10-07T12:22:40.120Z,10.9
2017-10-07T12:23:41.740Z,11.0
2017-10-07T12:24:43.366Z,10.9
2017-10-07T12:25:45.019Z,11.0
2017-10-07T12:26:46.643Z,11.0
2017-10-07T12:27:48.269Z,11.1
2017-10-07T12:28:49.887Z,11.0
2017-10-07T12:29:51.509Z,11.1
2017-10-07T12:30:53.161Z,11.0
2017-10-07T12:31:54.796Z,11.0
2017-10-07T12:32:56.420Z,11.0
2017-10-07T12:33:58.047Z,11.0
2017-10-07T12:34:59.671Z,11.1
2017-10-07T12:36:01.291Z,11.1
2017-10-07T12:37:02.914Z,11.1
2017-10-07T12:38:04.566Z,11.1
2017-10-07T12:39:06.194Z,11.1
2017-10-07T12:40:07.866Z,11.2
2017-10-07T12:41:09.492Z,11.2
2017-10-07T12:42:11.114Z,11.2
2017-10-07T12:43:12.790Z,11.3
2017-10-07T12:44:14.412Z,11.2
2017-10-07T12:45:16.034Z,11.3
2017-10-07T12:46:17.659Z,11.3
2017-10-07T12:47:19.281Z,11.3
2017-10-07T12:48:20.906Z,11.3
2017-10-07T12:49:22.527Z,11.3
2017-10-07T12:50:24.185Z,11.4
2017-10-07T12:51:25.809Z,11.3
2017-10-07T12:52:27.430Z,11.4
2017-10-07T12:53:29.053Z,11.3
2017-10-07T12:54:30.835Z,11.4
2017-10-07T12:55:32.467Z,11.3
2017-10-07T12:56:34.109Z,11.3
2017-10-07T12:57:35.730Z,11.4
2017-10-07T12:58:37.355Z,11.4
2017-10-07T12:59:41.044Z,11.4
2017-10-07T13:00:42.681Z,11.4
2017-10-07T13:01:44.305Z,11.4
2017-10-07T13:02:46.126Z,11.4
2017-10-07T13:03:47.753Z,11.4
2017-10-07T13:04:49.378Z,11.5
2017-10-07T13:05:51.044Z,11.4
2017-10-07T13:06:52.676Z,11.4
2017-10-07T13:07:54.298Z,11.5
2017-10-07T13:08:55.921Z,11.5
2017-10-07T13:09:57.550Z,11.5
2017-10-07T13:11:00.875Z,11.5
2017-10-07T13:12:02.473Z,11.4
2017-10-07T13:13:04.096Z,11.5
2017-10-07T13:14:05.718Z,11.5
2017-10-07T13:15:07.344Z,11.5
2017-10-07T13:16:08.976Z,11.5
2017-10-07T13:17:10.599Z,11.5
2017-10-07T13:18:12.222Z,11.5
2017-10-07T13:19:13.846Z,11.5
2017-10-07T13:20:15.537Z,11.6
2017-10-07T13:21:17.167Z,11.7
2017-10-07T13:22:18.789Z,11.7
2017-10-07T13:23:20.412Z,11.7
2017-10-07T13:24:22.040Z,11.7
2017-10-07T13:25:23.660Z,11.7
2017-10-07T13:26:25.281Z,11.7
2017-10-07T13:27:26.905Z,11.7
2017-10-07T13:28:28.527Z,11.8
2017-10-07T13:29:30.150Z,11.7
2017-10-07T13:30:31.774Z,11.7
2017-10-07T13:31:33.398Z,11.7
2017-10-07T13:32:35.022Z,11.8
2017-10-07T13:33:36.642Z,11.7
2017-10-07T13:34:38.270Z,11.7
2017-10-07T13:35:39.891Z,11.7
2017-10-07T13:36:41.516Z,11.8
2017-10-07T13:37:43.142Z,11.8
2017-10-07T13:38:44.765Z,11.8
2017-10-07T13:39:46.386Z,11.7
2017-10-07T13:40:48.007Z,11.8